createdAt,value
2023-04-12T00:00:36.163Z,77.10
2023-04-12T00:03:06.070Z,77.38
2023-04-12T00:05:32.469Z,78.27
2023-04-12T00:08:00.909Z,78.98
2023-04-12T00:10:27.369Z,79.79
2023-04-12T00:12:53.828Z,80.67
2023-04-12T00:15:20.346Z,81.55
2023-04-12T00:17:47.274Z,81.70
2023-04-12T00:20:16.316Z,82.04
2023-04-12T00:22:43.282Z,82.41
2023-04-12T00:25:10.670Z,82.60
2023-04-12T00:27:37.160Z,82.74
2023-04-12T00:30:03.967Z,83.16
2023-04-12T00:32:30.613Z,83.58
2023-04-12T00:34:57.037Z,83.77
2023-04-12T00:37:23.529Z,83.97
2023-04-12T00:39:49.970Z,83.80
2023-04-12T00:42:16.689Z,83.97
2023-04-12T00:44:43.226Z,83.31
2023-04-12T00:47:09.672Z,83.58
2023-04-12T00:49:36.178Z,84.07
2023-04-12T00:52:08.742Z,84.59
2023-04-12T00:54:35.858Z,84.53
2023-04-12T00:57:03.260Z,85.40
2023-04-12T00:59:30.228Z,84.76
2023-04-12T01:01:57.267Z,85.38
2023-04-12T01:04:26.510Z,85.16
2023-04-12T01:07:17.874Z,85.42
2023-04-12T01:09:56.725Z,86.08
2023-04-12T01:12:36.209Z,86.67
2023-04-12T01:15:05.923Z,87.27
2023-04-12T01:17:39.206Z,87.53
2023-04-12T01:20:17.128Z,87.85
2023-04-12T01:23:08.876Z,88.05
2023-04-12T01:25:47.549Z,88.11
2023-04-12T01:28:23.685Z,87.88
2023-04-12T01:30:51.974Z,88.17
2023-04-12T01:33:18.882Z,88.60
2023-04-12T01:35:48.418Z,88.52
2023-04-12T01:38:15.542Z,88.65
2023-04-12T01:40:42.694Z,88.49
2023-04-12T01:43:13.942Z,88.51
2023-04-12T01:45:40.773Z,88.96
2023-04-12T01:48:12.247Z,88.60
2023-04-12T01:51:01.579Z,88.90
2023-04-12T01:53:33.864Z,89.40
2023-04-12T01:56:06.382Z,89.48
2023-04-12T01:58:33.894Z,89.36
2023-04-12T02:01:02.969Z,89.41
2023-04-12T02:03:30.502Z,88.76
2023-04-12T02:05:59.412Z,88.99
2023-04-12T02:08:26.173Z,89.44
2023-04-12T02:20:14.413Z,90.19
2023-04-12T02:22:54.071Z,90.42
2023-04-12T02:26:00.996Z,90.57
2023-04-12T02:29:22.119Z,90.44
2023-04-12T02:32:08.442Z,90.15
2023-04-12T02:34:52.091Z,90.12
2023-04-12T02:40:32.772Z,90.50
2023-04-12T02:43:51.908Z,90.10
2023-04-12T02:50:37.361Z,90.53
2023-04-12T02:53:18.650Z,90.81
2023-04-12T02:56:34.676Z,91.05
2023-04-12T02:59:19.193Z,91.06
2023-04-12T03:05:37.400Z,91.45
2023-04-12T03:08:10.954Z,91.55
2023-04-12T03:10:52.723Z,91.66
2023-04-12T03:13:19.869Z,91.58
2023-04-12T03:16:25.965Z,91.51
2023-04-12T03:18:58.725Z,91.63
2023-04-12T03:22:04.074Z,91.30
2023-04-12T03:24:38.815Z,91.60
2023-04-12T03:27:10.165Z,91.48
2023-04-12T03:33:29.929Z,91.69
2023-04-12T03:40:27.742Z,91.68
2023-04-12T03:42:59.931Z,92.19
2023-04-12T03:52:32.198Z,91.74
2023-04-12T03:54:37.885Z,91.59
2023-04-12T03:57:08.205Z,91.68
2023-04-12T03:59:45.205Z,91.63
2023-04-12T04:02:18.419Z,91.49
2023-04-12T04:08:42.908Z,91.63
2023-04-12T04:11:15.881Z,91.39
2023-04-12T04:21:40.110Z,91.24
2023-04-12T04:31:19.540Z,90.96
2023-04-12T04:34:41.035Z,90.64
2023-04-12T04:39:06.044Z,90.54
2023-04-12T04:41:52.689Z,90.81
2023-04-12T04:44:43.215Z,90.86
2023-04-12T04:47:43.692Z,90.65
2023-04-12T05:04:27.583Z,91.26
2023-04-12T05:06:54.709Z,91.57
2023-04-12T05:15:41.482Z,92.32
2023-04-12T05:18:29.026Z,92.47
2023-04-12T05:20:56.034Z,92.56
2023-04-12T05:26:50.396Z,93.08
2023-04-12T05:29:27.967Z,93.24
2023-04-12T05:32:15.346Z,93.48
2023-04-12T05:34:57.289Z,93.51
2023-04-12T05:37:33.773Z,93.49
2023-04-12T05:40:15.574Z,93.91
2023-04-12T05:42:44.820Z,94.17
2023-04-12T05:45:17.143Z,94.14
2023-04-12T05:47:47.122Z,94.08
2023-04-12T05:50:18.729Z,94.08
2023-04-12T05:52:48.710Z,94.13
2023-04-12T05:55:18.832Z,94.22
2023-04-12T05:59:04.340Z,93.96
2023-04-12T06:00:36.689Z,93.90
2023-04-12T06:03:21.986Z,93.70
2023-04-12T06:05:52.148Z,93.90
2023-04-12T06:08:19.781Z,94.12
2023-04-12T06:10:46.682Z,94.24
2023-04-12T06:13:14.047Z,94.41
2023-04-12T06:15:43.994Z,94.37
2023-04-12T06:18:52.868Z,94.51
2023-04-12T06:21:26.820Z,94.59
2023-04-12T06:28:09.494Z,94.91
2023-04-12T06:32:54.718Z,94.91
2023-04-12T06:35:45.651Z,94.98
2023-04-12T06:45:03.952Z,95.05
2023-04-12T06:47:32.398Z,95.06
2023-04-12T06:50:22.386Z,95.17
2023-04-12T07:03:04.582Z,94.70
2023-04-12T07:05:36.499Z,94.67
2023-04-12T07:08:31.476Z,94.71
2023-04-12T07:25:18.382Z,94.20
2023-04-12T07:27:48.459Z,94.01
2023-04-12T07:30:17.226Z,94.18
2023-04-12T07:32:44.235Z,94.14
2023-04-12T07:35:11.214Z,94.18
2023-04-12T07:37:38.175Z,94.18
2023-04-12T07:40:12.050Z,94.03
2023-04-12T07:42:38.942Z,94.13
2023-04-12T07:45:06.147Z,94.18
2023-04-12T07:47:32.940Z,94.07
2023-04-12T07:49:59.469Z,94.12
2023-04-12T07:52:25.993Z,94.14
2023-04-12T07:54:52.457Z,94.17
2023-04-12T07:57:18.851Z,93.81
2023-04-12T07:59:45.257Z,93.81
2023-04-12T08:02:11.704Z,94.10
2023-04-12T08:04:38.414Z,94.02
2023-04-12T08:07:05.047Z,94.12
2023-04-12T08:09:31.565Z,94.02
2023-04-12T08:11:58.308Z,93.99
2023-04-12T08:14:24.832Z,94.09
2023-04-12T08:16:51.304Z,93.99
2023-04-12T08:19:18.626Z,94.24
2023-04-12T08:21:45.133Z,94.23
2023-04-12T08:24:12.320Z,94.21
2023-04-12T08:26:38.805Z,94.46
2023-04-12T08:29:05.407Z,94.47
2023-04-12T08:31:32.724Z,94.59
2023-04-12T08:33:59.860Z,94.63
2023-04-12T08:36:27.243Z,94.49
2023-04-12T08:38:55.929Z,94.07
2023-04-12T08:41:22.382Z,94.17
2023-04-12T08:43:49.543Z,94.01
2023-04-12T08:46:16.963Z,94.01
2023-04-12T08:48:48.859Z,93.61
2023-04-12T08:51:17.605Z,93.80
2023-04-12T08:53:44.417Z,93.93
2023-04-12T08:56:12.272Z,93.49
2023-04-12T08:58:46.696Z,93.91
2023-04-12T09:01:15.562Z,93.71
2023-04-12T09:03:43.694Z,92.89
2023-04-12T09:06:11.242Z,93.19
2023-04-12T09:08:37.971Z,93.32
2023-04-12T09:11:43.196Z,93.24
2023-04-12T09:14:25.816Z,93.50
2023-04-12T09:16:52.369Z,93.69
2023-04-12T09:19:34.464Z,93.80
2023-04-12T09:22:02.007Z,93.75
2023-04-12T09:24:29.637Z,94.05
2023-04-12T09:27:07.083Z,94.19
2023-04-12T09:29:34.299Z,94.35
2023-04-12T09:32:03.667Z,94.60
2023-04-12T09:34:31.371Z,94.73
2023-04-12T09:36:58.944Z,94.53
2023-04-12T09:39:35.466Z,94.61
2023-04-12T09:42:18.112Z,94.66
2023-04-12T09:44:59.585Z,94.35
2023-04-12T09:47:38.346Z,94.15
2023-04-12T09:50:09.595Z,94.11
2023-04-12T09:52:41.244Z,94.12
2023-04-12T09:55:11.358Z,93.85
2023-04-12T09:57:43.322Z,93.89
2023-04-12T10:00:13.251Z,93.87
2023-04-12T10:02:46.749Z,94.05
2023-04-12T10:05:17.035Z,94.33
2023-04-12T10:07:44.436Z,94.17
2023-04-12T10:10:12.707Z,94.25
2023-04-12T10:12:44.158Z,93.79
2023-04-12T10:15:17.491Z,93.11
2023-04-12T10:17:45.772Z,92.36
2023-04-12T10:20:17.084Z,92.17
2023-04-12T10:22:46.471Z,91.47
2023-04-12T10:25:21.606Z,91.49
2023-04-12T10:27:48.955Z,91.06
2023-04-12T10:30:22.523Z,90.49
2023-04-12T10:33:09.959Z,90.41
2023-04-12T10:35:55.235Z,90.18
2023-04-12T10:38:26.640Z,89.90
2023-04-12T10:41:19.514Z,89.75
2023-04-12T10:43:49.907Z,90.06
2023-04-12T10:46:37.427Z,90.17
2023-04-12T10:49:14.448Z,90.47
2023-04-12T10:52:03.471Z,90.66
2023-04-12T10:54:31.838Z,90.79
2023-04-12T10:56:58.369Z,91.20
2023-04-12T10:59:34.377Z,92.15
2023-04-12T11:02:07.145Z,92.79
2023-04-12T11:04:35.199Z,93.43
2023-04-12T11:07:06.669Z,93.72
2023-04-12T11:09:33.119Z,94.10
2023-04-12T11:12:05.969Z,94.52
2023-04-12T11:14:47.162Z,95.11
2023-04-12T11:17:14.173Z,95.47
2023-04-12T11:19:45.394Z,95.69
2023-04-12T11:22:14.088Z,95.62
2023-04-12T11:24:45.058Z,95.08
2023-04-12T11:27:12.338Z,94.44
2023-04-12T11:29:39.023Z,94.26
2023-04-12T11:32:09.780Z,92.54
2023-04-12T11:34:37.319Z,91.55
2023-04-12T11:37:06.561Z,90.37
2023-04-12T11:39:33.442Z,89.81
2023-04-12T11:42:03.291Z,88.97
2023-04-12T11:44:44.152Z,88.66
2023-04-12T11:47:21.366Z,85.79
2023-04-12T11:49:55.725Z,84.38
2023-04-12T11:52:29.219Z,82.04
2023-04-12T11:54:58.820Z,82.35
2023-04-12T11:57:25.562Z,81.80
2023-04-12T11:59:52.637Z,80.21
2023-04-12T12:02:22.628Z,78.99
2023-04-12T12:04:51.080Z,79.36
2023-04-12T12:07:19.171Z,78.82
2023-04-12T12:09:46.769Z,78.58
2023-04-12T12:12:14.033Z,78.16
2023-04-12T12:14:40.888Z,78.52
2023-04-12T12:17:15.480Z,77.40
2023-04-12T12:19:44.244Z,78.39
2023-04-12T12:22:18.933Z,75.58
2023-04-12T12:24:47.644Z,74.33
2023-04-12T12:27:18.108Z,72.98
2023-04-12T12:29:48.798Z,71.64
2023-04-12T12:32:18.022Z,71.55
2023-04-12T12:34:55.685Z,71.87
2023-04-12T12:37:26.546Z,71.18
2023-04-12T12:40:07.429Z,69.90
2023-04-12T12:42:34.588Z,69.55
2023-04-12T12:45:01.141Z,67.92
2023-04-12T12:47:27.620Z,67.32
2023-04-12T12:49:54.176Z,66.72
2023-04-12T12:52:20.767Z,65.96
2023-04-12T12:54:47.241Z,64.16
2023-04-12T12:57:13.733Z,63.86
2023-04-12T12:59:40.292Z,62.79
2023-04-12T13:02:07.524Z,64.57
2023-04-12T13:04:34.728Z,66.54
2023-04-12T13:07:01.406Z,65.80
2023-04-12T13:09:28.024Z,64.59
2023-04-12T13:11:54.642Z,64.35
2023-04-12T13:14:21.306Z,63.90
2023-04-12T13:16:49.251Z,60.23
2023-04-12T13:19:16.421Z,61.01
2023-04-12T13:21:42.977Z,63.26
2023-04-12T13:24:09.579Z,61.88
2023-04-12T13:26:36.193Z,62.41
2023-04-12T13:29:03.314Z,63.74
2023-04-12T13:31:30.019Z,62.96
2023-04-12T13:33:56.591Z,63.33
2023-04-12T13:36:23.392Z,64.91
2023-04-12T13:38:49.905Z,64.52
2023-04-12T13:41:16.411Z,65.03
2023-04-12T13:43:42.875Z,64.72
2023-04-12T13:46:09.432Z,65.50
2023-04-12T13:48:35.961Z,66.00
2023-04-12T13:51:03.741Z,65.12
2023-04-12T13:53:31.028Z,64.44
2023-04-12T13:55:57.493Z,62.81
2023-04-12T13:58:25.790Z,61.42
2023-04-12T14:00:54.282Z,59.95
2023-04-12T14:03:21.088Z,61.11
2023-04-12T14:05:47.548Z,60.97
2023-04-12T14:08:14.070Z,61.25
2023-04-12T14:10:40.631Z,61.34
2023-04-12T14:13:07.153Z,61.63
2023-04-12T14:15:33.949Z,62.36
2023-04-12T14:18:00.727Z,62.03
2023-04-12T14:20:27.463Z,61.76
2023-04-12T14:22:54.079Z,61.52
2023-04-12T14:25:21.470Z,61.49
2023-04-12T14:27:48.121Z,62.48
2023-04-12T14:30:15.897Z,62.79
2023-04-12T14:32:47.545Z,65.15
2023-04-12T14:35:14.667Z,68.34
2023-04-12T14:37:41.769Z,69.82
2023-04-12T14:40:08.857Z,67.88
2023-04-12T14:42:35.666Z,66.40
2023-04-12T14:45:02.541Z,65.30
2023-04-12T14:47:29.154Z,65.12
2023-04-12T14:49:55.729Z,65.98
2023-04-12T14:52:22.244Z,65.67
2023-04-12T14:54:48.748Z,61.25
2023-04-12T14:57:15.518Z,59.60
2023-04-12T14:59:42.105Z,57.53
2023-04-12T15:02:08.764Z,57.30
2023-04-12T15:04:35.593Z,59.06
2023-04-12T15:07:02.254Z,61.65
2023-04-12T15:09:28.814Z,64.68
2023-04-12T15:12:00.762Z,65.92
2023-04-12T15:14:27.932Z,66.80
2023-04-12T15:16:55.039Z,66.70
2023-04-12T15:19:24.911Z,67.07
2023-04-12T15:21:52.280Z,67.52
2023-04-12T15:24:19.370Z,67.43
2023-04-12T15:26:48.443Z,67.52
2023-04-12T15:29:16.574Z,65.02
2023-04-12T15:31:43.318Z,65.52
2023-04-12T15:34:10.958Z,65.78
2023-04-12T15:36:37.910Z,67.74
2023-04-12T15:39:07.312Z,70.20
2023-04-12T15:41:37.255Z,71.12
2023-04-12T15:44:05.034Z,71.18
2023-04-12T15:46:31.624Z,71.29
2023-04-12T15:48:58.764Z,68.28
2023-04-12T15:51:27.094Z,68.50
2023-04-12T15:53:54.315Z,64.86
2023-04-12T15:56:24.450Z,65.15
2023-04-12T15:58:51.971Z,67.12
2023-04-12T16:01:19.440Z,69.24
2023-04-12T16:03:50.801Z,69.13
2023-04-12T16:06:19.669Z,69.29
2023-04-12T16:08:51.712Z,68.70
2023-04-12T16:11:20.278Z,69.29
2023-04-12T16:13:49.008Z,69.69
2023-04-12T16:16:17.605Z,69.65
2023-04-12T16:18:46.215Z,69.72
2023-04-12T16:21:18.936Z,69.84
2023-04-12T16:23:48.105Z,70.68
2023-04-12T16:26:21.793Z,70.39
2023-04-12T16:28:50.410Z,70.54
2023-04-12T16:31:17.352Z,69.29
2023-04-12T16:33:45.207Z,65.82
2023-04-12T16:36:12.016Z,64.50
2023-04-12T16:38:38.612Z,65.48
2023-04-12T16:41:05.276Z,65.25
2023-04-12T16:43:32.235Z,67.48
2023-04-12T16:46:04.920Z,71.26
2023-04-12T16:48:32.156Z,70.25
2023-04-12T16:51:01.717Z,69.14
2023-04-12T16:53:28.409Z,67.42
2023-04-12T16:55:57.941Z,67.52
2023-04-12T16:58:24.608Z,66.32
2023-04-12T17:00:51.107Z,67.82
2023-04-12T17:03:18.561Z,66.66
2023-04-12T17:05:46.566Z,66.86
2023-04-12T17:08:13.472Z,65.22
2023-04-12T17:10:40.095Z,65.39
2023-04-12T17:13:06.641Z,64.99
2023-04-12T17:15:33.578Z,63.36
2023-04-12T17:18:01.475Z,63.00
2023-04-12T17:20:29.143Z,61.99
2023-04-12T17:22:57.559Z,62.50
2023-04-12T17:25:26.735Z,62.16
2023-04-12T17:27:53.939Z,62.78
2023-04-12T17:30:20.472Z,62.55
2023-04-12T17:32:48.219Z,62.93
2023-04-12T17:35:17.744Z,63.66
2023-04-12T17:37:44.549Z,63.33
2023-04-12T17:40:11.244Z,63.72
2023-04-12T17:42:39.218Z,63.83
2023-04-12T17:45:07.059Z,64.16
2023-04-12T17:47:34.815Z,63.88
2023-04-12T17:50:01.409Z,64.71
2023-04-12T17:52:27.873Z,65.02
2023-04-12T17:57:37.410Z,64.49
2023-04-12T18:00:12.029Z,65.90
2023-04-12T18:02:38.891Z,66.40
2023-04-12T18:05:07.525Z,67.84
2023-04-12T18:07:34.414Z,68.48
2023-04-12T18:10:02.309Z,69.30
2023-04-12T18:12:29.123Z,69.82
2023-04-12T18:14:55.540Z,70.63
2023-04-12T18:17:23.332Z,69.82
2023-04-12T18:19:51.489Z,69.57
2023-04-12T18:22:17.941Z,70.23
2023-04-12T18:24:44.465Z,70.00
2023-04-12T18:27:11.193Z,70.00
2023-04-12T18:29:37.624Z,70.12
2023-04-12T18:32:04.056Z,70.42
2023-04-12T18:34:30.953Z,70.51
2023-04-12T18:36:58.224Z,70.16
2023-04-12T18:39:24.966Z,70.61
2023-04-12T18:41:51.563Z,71.32
2023-04-12T18:44:19.724Z,71.44
2023-04-12T18:46:46.653Z,71.88
2023-04-12T18:49:14.321Z,72.09
2023-04-12T18:51:42.734Z,72.59
2023-04-12T18:54:12.924Z,72.46
2023-04-12T18:56:42.142Z,72.79
2023-04-12T18:59:08.993Z,73.42
2023-04-12T19:01:35.709Z,74.26
2023-04-12T19:04:05.069Z,74.96
2023-04-12T19:06:35.031Z,75.43
2023-04-12T19:09:02.180Z,75.64
2023-04-12T19:11:28.584Z,75.90
2023-04-12T19:13:56.077Z,75.91
2023-04-12T19:16:24.413Z,76.17
2023-04-12T19:18:51.401Z,76.46
2023-04-12T19:21:17.867Z,76.28
2023-04-12T19:23:44.394Z,76.36
2023-04-12T19:26:11.440Z,76.62
2023-04-12T19:28:37.853Z,76.76
2023-04-12T19:31:09.646Z,76.97
2023-04-12T19:33:40.170Z,77.04
2023-04-12T19:36:07.353Z,77.74
2023-04-12T19:38:34.186Z,78.24
2023-04-12T19:41:01.938Z,78.63
2023-04-12T19:43:28.333Z,79.11
2023-04-12T19:45:54.773Z,79.40
2023-04-12T19:48:21.351Z,79.76
2023-04-12T19:50:48.992Z,80.29
2023-04-12T19:53:18.574Z,80.58
2023-04-12T19:55:45.240Z,79.44
2023-04-12T19:58:13.151Z,78.86
2023-04-12T20:00:41.092Z,78.19
2023-04-12T20:03:09.186Z,77.95
2023-04-12T20:05:36.050Z,78.90
2023-04-12T20:08:02.641Z,79.93
2023-04-12T20:10:29.029Z,81.05
2023-04-12T20:12:55.653Z,81.34
2023-04-12T20:15:22.405Z,81.26
2023-04-12T20:17:49.887Z,81.89
2023-04-12T20:20:17.297Z,81.94
2023-04-12T20:22:51.830Z,82.69
2023-04-12T20:25:20.198Z,82.91
2023-04-12T20:27:52.091Z,83.02
2023-04-12T20:30:20.359Z,83.23
2023-04-12T20:32:49.245Z,83.63
2023-04-12T20:35:15.752Z,83.88
2023-04-12T20:37:43.185Z,84.63
2023-04-12T20:40:09.982Z,84.71
2023-04-12T20:42:37.772Z,85.07
2023-04-12T20:45:04.435Z,85.33
2023-04-12T20:47:34.676Z,85.32
2023-04-12T20:50:01.136Z,85.09
2023-04-12T20:52:27.594Z,85.07
2023-04-12T20:54:54.577Z,84.97
2023-04-12T20:57:20.969Z,85.13
2023-04-12T20:59:47.883Z,85.00
2023-04-12T21:02:16.578Z,84.89
2023-04-12T21:04:44.962Z,84.90
2023-04-12T21:07:11.520Z,84.79
2023-04-12T21:09:38.826Z,85.06
2023-04-12T21:12:08.307Z,85.46
2023-04-12T21:14:37.784Z,87.03
2023-04-12T21:17:05.045Z,85.30
2023-04-12T21:19:50.995Z,88.20
2023-04-12T21:22:20.429Z,89.20
2023-04-12T21:24:46.877Z,90.48
2023-04-12T21:27:18.068Z,92.20
2023-04-12T21:29:45.103Z,92.79
2023-04-12T21:32:12.351Z,93.15
2023-04-12T21:34:42.810Z,93.10
2023-04-12T21:37:10.969Z,92.99
2023-04-12T21:39:39.237Z,92.77
2023-04-12T21:42:06.197Z,89.98
2023-04-12T21:44:32.937Z,87.71
2023-04-12T21:47:01.835Z,86.90
2023-04-12T21:49:30.836Z,85.79
2023-04-12T21:52:00.232Z,83.18
2023-04-12T21:54:31.659Z,84.12
2023-04-12T21:57:00.246Z,83.89
2023-04-12T21:59:27.165Z,84.10
2023-04-12T22:01:53.768Z,85.00
2023-04-12T22:04:22.735Z,85.82
2023-04-12T22:06:50.876Z,86.40
2023-04-12T22:09:18.634Z,84.62
2023-04-12T22:11:46.575Z,85.32
2023-04-12T22:14:13.055Z,85.41
2023-04-12T22:16:40.602Z,85.42
2023-04-12T22:19:07.488Z,85.16
2023-04-12T22:21:33.900Z,85.49
2023-04-12T22:24:00.667Z,85.57
2023-04-12T22:26:27.318Z,85.55
2023-04-12T22:28:54.186Z,85.57
2023-04-12T22:31:22.764Z,85.93
2023-04-12T22:33:49.368Z,86.19
2023-04-12T22:36:16.069Z,86.05
2023-04-12T22:38:42.568Z,86.46
2023-04-12T22:41:09.096Z,86.46
2023-04-12T22:43:42.881Z,85.72
2023-04-12T22:46:16.275Z,85.65
2023-04-12T22:48:43.826Z,83.64
2023-04-12T22:51:10.987Z,84.15
2023-04-12T22:53:38.867Z,84.00
2023-04-12T22:56:05.715Z,83.72
2023-04-12T22:58:32.062Z,84.31
2023-04-12T23:00:58.809Z,83.48
2023-04-12T23:03:25.836Z,83.47
2023-04-12T23:05:52.949Z,83.46
2023-04-12T23:08:20.119Z,83.81
2023-04-12T23:10:46.742Z,83.54
2023-04-12T23:13:13.414Z,84.02
2023-04-12T23:15:40.575Z,84.11
2023-04-12T23:18:08.428Z,83.96
2023-04-12T23:20:37.339Z,84.24
2023-04-12T23:23:04.367Z,84.61
2023-04-12T23:25:39.148Z,83.93
2023-04-12T23:28:14.123Z,84.15
2023-04-12T23:30:45.021Z,84.34
2023-04-12T23:33:12.073Z,84.59
2023-04-12T23:35:39.718Z,84.55
2023-04-12T23:38:06.136Z,84.02
2023-04-12T23:40:33.094Z,84.35
2023-04-12T23:42:59.523Z,84.07
2023-04-12T23:45:26.362Z,83.66
2023-04-12T23:47:53.770Z,83.19
2023-04-12T23:50:20.441Z,82.79
2023-04-12T23:52:47.078Z,82.11
2023-04-12T23:55:14.165Z,81.61
